createdAt,value
2023-08-14T00:01:22.737Z,89.68
2023-08-14T00:06:26.814Z,90.30
2023-08-14T00:11:30.894Z,89.89
2023-08-14T00:16:34.799Z,89.95
2023-08-14T00:21:39.086Z,89.91
2023-08-14T00:26:42.952Z,89.70
2023-08-14T00:31:47.692Z,89.59
2023-08-14T00:36:51.773Z,89.27
2023-08-14T00:41:56.420Z,89.55
2023-08-14T00:47:00.555Z,89.30
2023-08-14T00:52:04.767Z,89.90
2023-08-14T00:57:08.881Z,89.63
2023-08-14T01:02:12.971Z,89.67
2023-08-14T01:07:17.255Z,89.29
2023-08-14T01:12:54.478Z,89.68
2023-08-14T01:18:02.761Z,89.78
2023-08-14T01:23:24.162Z,89.20
2023-08-14T01:28:29.658Z,89.57
2023-08-14T01:33:34.724Z,89.38
2023-08-14T01:39:03.143Z,89.28
2023-08-14T01:44:12.416Z,89.28
2023-08-14T01:49:19.533Z,89.12
2023-08-14T01:54:23.566Z,89.45
2023-08-14T01:59:46.153Z,88.96
2023-08-14T02:04:52.262Z,88.66
2023-08-14T02:09:58.082Z,88.69
2023-08-14T02:15:03.298Z,88.34
2023-08-14T02:20:10.177Z,88.15
2023-08-14T02:25:14.173Z,88.56
2023-08-14T02:30:18.386Z,88.23
2023-08-14T02:35:22.636Z,88.25
2023-08-14T02:40:26.648Z,88.39
2023-08-14T02:45:31.871Z,88.06
2023-08-14T02:50:35.825Z,87.92
2023-08-14T02:55:40.087Z,88.01
2023-08-14T03:00:44.145Z,87.87
2023-08-14T03:05:48.389Z,88.30
2023-08-14T03:10:52.658Z,88.29
2023-08-14T03:15:56.947Z,88.31
2023-08-14T03:21:01.241Z,88.63
2023-08-14T03:26:06.831Z,88.34
2023-08-14T03:31:11.634Z,88.66
2023-08-14T03:36:15.675Z,88.85
2023-08-14T03:41:21.498Z,88.62
2023-08-14T03:46:25.501Z,88.38
2023-08-14T03:51:29.625Z,88.53
2023-08-14T03:56:33.534Z,88.50
2023-08-14T04:01:39.843Z,88.30
2023-08-14T04:06:46.260Z,88.34
2023-08-14T04:11:50.838Z,88.45
2023-08-14T04:16:56.179Z,88.14
2023-08-14T04:22:00.262Z,88.41
2023-08-14T04:27:04.303Z,88.13
2023-08-14T04:32:49.710Z,87.82
2023-08-14T04:37:53.790Z,87.45
2023-08-14T04:42:58.070Z,87.35
2023-08-14T04:48:02.356Z,87.69
2023-08-14T04:53:08.428Z,87.55
2023-08-14T04:58:15.541Z,87.18
2023-08-14T05:03:19.781Z,87.35
2023-08-14T05:08:23.882Z,87.45
2023-08-14T05:13:28.094Z,87.27
2023-08-14T05:18:32.302Z,87.58
2023-08-14T05:23:36.371Z,87.18
2023-08-14T05:28:40.656Z,86.72
2023-08-14T05:33:44.623Z,87.41
2023-08-14T05:38:48.760Z,87.08
2023-08-14T05:43:52.870Z,87.37
2023-08-14T05:48:56.983Z,87.48
2023-08-14T05:54:01.190Z,86.82
2023-08-14T05:59:05.349Z,87.09
2023-08-14T06:04:09.461Z,86.85
2023-08-14T06:09:17.918Z,86.90
2023-08-14T06:14:22.521Z,87.20
2023-08-14T06:19:26.651Z,87.04
2023-08-14T06:24:31.516Z,87.14
2023-08-14T06:29:35.469Z,87.07
2023-08-14T06:34:39.746Z,86.78
2023-08-14T06:39:44.275Z,86.80
2023-08-14T06:44:48.360Z,86.72
2023-08-14T06:49:52.710Z,86.69
2023-08-14T06:54:56.732Z,86.88
2023-08-14T07:00:14.027Z,87.03
2023-08-14T07:05:18.184Z,86.96
2023-08-14T07:10:22.358Z,86.98
2023-08-14T07:15:28.097Z,86.49
2023-08-14T07:20:32.457Z,86.43
2023-08-14T07:25:36.436Z,86.76
2023-08-14T07:30:41.676Z,86.49
2023-08-14T07:35:45.886Z,86.52
2023-08-14T07:40:50.099Z,86.28
2023-08-14T07:45:54.474Z,86.40
2023-08-14T07:50:58.590Z,86.48
2023-08-14T07:56:05.225Z,86.22
2023-08-14T08:01:12.760Z,86.40
2023-08-14T08:06:16.801Z,86.15
2023-08-14T08:11:20.959Z,86.10
2023-08-14T08:16:25.008Z,86.13
2023-08-14T08:21:29.952Z,86.18
2023-08-14T08:26:33.880Z,85.94
2023-08-14T08:31:38.155Z,86.08
2023-08-14T08:36:42.278Z,85.99
2023-08-14T08:41:48.473Z,85.89
2023-08-14T08:47:05.389Z,85.65
2023-08-14T08:52:10.236Z,85.17
2023-08-14T08:57:14.502Z,84.91
2023-08-14T09:02:19.138Z,84.52
2023-08-14T09:07:23.678Z,84.68
2023-08-14T09:12:27.976Z,84.62
2023-08-14T09:17:32.626Z,84.67
2023-08-14T09:22:40.342Z,84.60
2023-08-14T09:27:45.113Z,84.18
2023-08-14T09:32:49.520Z,84.10
2023-08-14T09:37:53.910Z,83.86
2023-08-14T09:43:01.910Z,84.30
2023-08-14T09:48:06.727Z,84.67
2023-08-14T09:53:11.170Z,85.26
2023-08-14T09:58:15.172Z,85.38
2023-08-14T10:03:21.238Z,85.28
2023-08-14T10:08:25.501Z,85.05
2023-08-14T10:13:30.441Z,85.64
2023-08-14T10:18:40.083Z,85.61
2023-08-14T10:23:45.200Z,85.63
2023-08-14T10:28:49.960Z,85.81
2023-08-14T10:33:54.964Z,86.37
2023-08-14T10:39:10.649Z,86.27
2023-08-14T10:44:14.897Z,86.30
2023-08-14T10:49:19.095Z,86.07
2023-08-14T10:54:25.405Z,86.01
2023-08-14T10:59:30.215Z,86.20
2023-08-14T11:04:38.557Z,86.45
2023-08-14T11:09:48.521Z,86.81
2023-08-14T11:14:52.951Z,86.68
2023-08-14T11:19:57.056Z,86.62
2023-08-14T11:25:01.250Z,87.07
2023-08-14T11:30:08.998Z,87.14
2023-08-14T11:40:29.505Z,87.35
2023-08-14T11:45:34.072Z,87.34
2023-08-14T11:50:37.967Z,87.35
2023-08-14T11:55:42.360Z,87.58
2023-08-14T12:00:52.473Z,87.32
2023-08-14T12:06:05.897Z,87.27
2023-08-14T12:11:11.294Z,87.38
2023-08-14T12:16:19.014Z,87.42
2023-08-14T12:21:29.513Z,87.58
2023-08-14T12:26:45.480Z,87.29
2023-08-14T12:31:49.606Z,87.43
2023-08-14T12:36:53.834Z,87.65
2023-08-14T12:41:58.343Z,87.84
2023-08-14T12:47:02.583Z,87.88
2023-08-14T12:52:10.109Z,88.02
2023-08-14T12:57:17.905Z,88.27
2023-08-14T13:02:25.530Z,88.33
2023-08-14T13:07:30.868Z,88.19
2023-08-14T13:12:35.193Z,87.82
2023-08-14T13:17:39.374Z,88.19
2023-08-14T13:22:43.696Z,88.50
2023-08-14T13:27:48.013Z,88.44
2023-08-14T13:32:52.060Z,88.69
2023-08-14T13:37:56.103Z,88.60
2023-08-14T13:43:00.241Z,88.39
2023-08-14T13:48:04.538Z,88.39
2023-08-14T13:53:08.726Z,88.37
2023-08-14T13:58:13.080Z,88.85
2023-08-14T14:03:17.117Z,89.17
2023-08-14T14:08:23.758Z,89.41
2023-08-14T14:13:28.038Z,89.72
2023-08-14T14:18:32.250Z,89.50
2023-08-14T14:23:36.171Z,89.84
2023-08-14T14:28:40.545Z,89.75
2023-08-14T14:33:44.517Z,90.05
2023-08-14T14:38:48.524Z,90.02
2023-08-14T14:43:52.777Z,89.74
2023-08-14T14:48:56.741Z,90.03
2023-08-14T14:54:00.790Z,90.22
2023-08-14T14:59:04.752Z,90.20
2023-08-14T15:04:08.912Z,89.97
2023-08-14T15:09:13.256Z,90.10
2023-08-14T15:14:17.571Z,90.03
2023-08-14T15:19:22.253Z,90.27
2023-08-14T15:24:26.314Z,89.97
2023-08-14T15:29:30.365Z,90.07
2023-08-14T15:34:34.561Z,89.87
2023-08-14T15:39:39.606Z,89.94
2023-08-14T15:44:43.706Z,89.74
2023-08-14T15:49:47.774Z,90.07
2023-08-14T15:54:53.894Z,90.21
2023-08-14T15:59:58.289Z,90.24
2023-08-14T16:05:02.574Z,90.10
2023-08-14T16:10:08.371Z,90.02
2023-08-14T16:15:14.919Z,90.32
2023-08-14T16:20:18.903Z,90.37
2023-08-14T16:25:23.062Z,90.20
2023-08-14T16:30:27.010Z,90.15
2023-08-14T16:35:31.276Z,90.45
2023-08-14T16:40:41.677Z,90.49
2023-08-14T16:45:50.445Z,90.37
2023-08-14T16:50:55.388Z,90.24
2023-08-14T16:55:59.504Z,89.96
2023-08-14T17:01:03.673Z,90.24
2023-08-14T17:06:26.711Z,90.71
2023-08-14T17:11:49.664Z,90.75
2023-08-14T17:16:54.258Z,90.46
2023-08-14T17:21:58.265Z,90.24
2023-08-14T17:27:02.446Z,90.26
2023-08-14T17:32:06.785Z,90.59
2023-08-14T17:37:35.415Z,90.24
2023-08-14T17:42:40.514Z,90.33
2023-08-14T17:47:44.654Z,90.26
2023-08-14T17:52:48.576Z,90.52
2023-08-14T17:57:52.660Z,90.19
2023-08-14T18:02:56.594Z,89.99
2023-08-14T18:08:00.850Z,90.48
2023-08-14T18:13:05.349Z,90.06
2023-08-14T18:18:10.071Z,90.24
2023-08-14T18:23:14.095Z,90.27
2023-08-14T18:28:17.970Z,89.87
2023-08-14T18:33:22.108Z,89.92
2023-08-14T18:38:27.013Z,89.69
2023-08-14T18:43:31.115Z,89.90
2023-08-14T18:48:35.311Z,89.92
2023-08-14T18:53:39.372Z,90.26
2023-08-14T18:58:43.801Z,89.92
2023-08-14T19:03:47.743Z,89.80
2023-08-14T19:08:51.848Z,89.87
2023-08-14T19:13:55.916Z,89.95
2023-08-14T19:19:00.237Z,89.69
2023-08-14T19:24:04.646Z,89.91
2023-08-14T19:29:08.706Z,89.99
2023-08-14T19:34:12.828Z,89.76
2023-08-14T19:39:19.100Z,90.03
2023-08-14T19:44:32.317Z,89.73
2023-08-14T19:49:36.312Z,90.00
2023-08-14T19:54:40.459Z,90.06
2023-08-14T19:59:44.476Z,89.64
2023-08-14T20:04:50.767Z,89.92
2023-08-14T20:09:55.143Z,89.96
2023-08-14T20:14:59.564Z,89.96
2023-08-14T20:20:04.187Z,90.09
2023-08-14T20:25:08.694Z,90.21
2023-08-14T20:30:13.588Z,90.00
2023-08-14T20:35:17.465Z,90.08
2023-08-14T20:40:21.672Z,89.98
2023-08-14T20:45:25.649Z,90.12
2023-08-14T20:50:29.936Z,90.00
2023-08-14T20:55:35.362Z,90.12
2023-08-14T21:00:42.390Z,90.36
2023-08-14T21:05:47.749Z,90.48
2023-08-14T21:10:51.810Z,90.35
2023-08-14T21:16:00.372Z,90.65
2023-08-14T21:21:05.698Z,90.47
2023-08-14T21:26:09.563Z,90.39
2023-08-14T21:31:13.871Z,90.20
2023-08-14T21:36:17.910Z,90.35
2023-08-14T21:41:21.953Z,90.42
2023-08-14T21:46:26.050Z,90.42
2023-08-14T21:51:30.323Z,90.66
2023-08-14T21:56:34.552Z,90.66
2023-08-14T22:01:38.658Z,90.63
2023-08-14T22:06:42.715Z,90.28
2023-08-14T22:11:46.625Z,90.68
2023-08-14T22:16:52.814Z,90.50
2023-08-14T22:21:57.141Z,90.64
2023-08-14T22:27:03.409Z,90.80
2023-08-14T22:32:07.450Z,90.42
2023-08-14T22:37:11.757Z,90.62
2023-08-14T22:42:25.124Z,90.52
2023-08-14T22:47:29.071Z,90.37
2023-08-14T22:52:33.367Z,90.54
2023-08-14T22:57:37.343Z,90.37
2023-08-14T23:02:41.623Z,90.63
2023-08-14T23:07:45.604Z,90.65
2023-08-14T23:12:49.712Z,90.43
2023-08-14T23:17:53.896Z,90.77
2023-08-14T23:22:58.052Z,90.99
2023-08-14T23:28:02.224Z,90.68
2023-08-14T23:33:07.744Z,90.66
2023-08-14T23:38:11.954Z,90.74
2023-08-14T23:43:15.842Z,90.57
2023-08-14T23:48:20.173Z,90.62
2023-08-14T23:53:24.659Z,90.73
2023-08-14T23:58:28.600Z,90.54
